White River, Canada
Current Conditions -  °F | °C
As of 6:00 PM on Wednesday 22 Oct 2014 (Local Time) from CYXZ Reporting Station
Clear Clear  
Wind Chill: 41°   Ceiling: Unl
Heat Index: 41°   Visibility: 15mi
Dew Point: 32°   Wind: 3mph
Humidity: 70%   Direction: 230°SW
Pressure: 30.3"   Gusts: NA
Location:  48.58°N, 85.28°W
Report Text: CYXZ 222200Z 23003KT 210V300 15SM SKC 05/00 A3030 RMK SLP276
Loading
Personal Weather Stations






























Interactive Weather Map
Tropical Storm Tracking
New forecast layout! Learn more

10-Day Weather Forecast

Advertisements
Track Severe Weather on mobile